Time;durP1;ratioP1;P1;durP2;ratioP2;P2;SDS_P1;SDS_P2;PMS_P1;PMS_P2;Temp;Humidity;BMP_temperature;BMP_pressure;BME280_temperature;BME280_humidity;BME280_pressure;Samples;Min_cycle;Max_cycle;Signal;HPM_P1;HPM_P2
2022/12/16 00:01:45;;;;;;;0.85;0.10;;;;;;;6.92;100.00;99129.16;5024966;28;20128;-74
2022/12/16 00:04:10;;;;;;;1.17;0.20;;;;;;;6.92;100.00;99134.34;5031813;28;20164;-72
2022/12/16 00:06:36;;;;;;;1.25;0.22;;;;;;;6.92;100.00;99134.34;5027935;28;20057;-73
2022/12/16 00:09:01;;;;;;;0.95;0.17;;;;;;;6.95;100.00;99140.03;5030746;28;20037;-73
2022/12/16 00:11:27;;;;;;;0.65;0.10;;;;;;;7.03;100.00;99147.03;5025800;28;20369;-73
2022/12/16 00:13:53;;;;;;;0.60;0.30;;;;;;;7.05;100.00;99139.91;5031056;28;20044;-73
2022/12/16 00:16:20;;;;;;;0.70;0.20;;;;;;;7.09;100.00;99159.31;5025449;28;20096;-73
2022/12/16 00:18:46;;;;;;;2.00;0.20;;;;;;;7.08;100.00;99169.88;5026776;28;20178;-73
2022/12/16 00:21:12;;;;;;;0.40;0.10;;;;;;;7.06;100.00;99177.78;5023302;28;20040;-74
2022/12/16 00:23:40;;;;;;;1.00;0.10;;;;;;;7.01;100.00;99179.22;5030048;28;20036;-73
2022/12/16 00:26:06;;;;;;;0.93;0.10;;;;;;;6.82;100.00;99190.56;5024596;28;20103;-74
2022/12/16 00:28:33;;;;;;;0.88;0.10;;;;;;;6.71;100.00;99199.38;5027892;28;20037;-72
2022/12/16 00:30:58;;;;;;;0.40;0.10;;;;;;;6.65;100.00;99192.22;5027016;28;20021;-72
2022/12/16 00:33:26;;;;;;;0.20;0.00;;;;;;;6.60;100.00;99190.13;5029720;28;20111;-72
2022/12/16 00:35:52;;;;;;;1.42;0.10;;;;;;;6.59;100.00;99190.25;5027595;28;20037;-72
2022/12/16 00:38:18;;;;;;;0.20;0.10;;;;;;;6.63;100.00;99191.56;5029851;28;20033;-73
2022/12/16 00:40:43;;;;;;;1.38;0.08;;;;;;;6.65;100.00;99197.41;5024169;28;20025;-73
2022/12/16 00:43:10;;;;;;;0.85;0.10;;;;;;;6.63;100.00;99209.69;5028533;28;20029;-73
2022/12/16 00:45:36;;;;;;;0.40;0.10;;;;;;;6.58;100.00;99217.09;5021991;28;20041;-73
2022/12/16 00:48:02;;;;;;;4.47;0.10;;;;;;;6.61;100.00;99214.22;5028072;28;20068;-72
2022/12/16 00:50:28;;;;;;;0.68;0.10;;;;;;;6.73;100.00;99214.78;5021309;28;20481;-72
2022/12/16 00:52:53;;;;;;;1.45;0.08;;;;;;;6.80;100.00;99220.97;5030856;28;20116;-73
2022/12/16 00:55:19;;;;;;;0.50;0.10;;;;;;;6.79;100.00;99219.34;5026055;28;20075;-73
2022/12/16 00:57:44;;;;;;;0.90;0.20;;;;;;;6.86;100.00;99223.78;5023682;28;20033;-73
2022/12/16 01:00:12;;;;;;;1.40;0.10;;;;;;;6.90;100.00;99225.09;5027309;28;20029;-72
2022/12/16 01:02:42;;;;;;;0.60;0.10;;;;;;;6.86;100.00;99228.97;5029750;28;20033;-73
2022/12/16 01:05:10;;;;;;;0.40;0.10;;;;;;;6.92;100.00;99225.78;5027683;28;20087;-73
2022/12/16 01:07:36;;;;;;;0.68;0.17;;;;;;;6.93;100.00;99222.22;5027622;28;20065;-73
2022/12/16 01:10:01;;;;;;;0.47;0.10;;;;;;;6.94;100.00;99236.78;5028205;28;20096;-73
2022/12/16 01:12:27;;;;;;;1.95;0.20;;;;;;;6.89;100.00;99233.84;5026649;28;20071;-73
2022/12/16 01:14:52;;;;;;;0.50;0.10;;;;;;;6.83;100.00;99226.66;5027574;28;20064;-73
2022/12/16 01:17:18;;;;;;;1.02;0.10;;;;;;;6.76;100.00;99233.41;5027435;28;20029;-73
2022/12/16 01:19:43;;;;;;;1.00;0.00;;;;;;;6.74;100.00;99243.09;5026566;28;20061;-73
2022/12/16 01:22:10;;;;;;;1.20;0.15;;;;;;;6.73;100.00;99248.41;5030126;28;20077;-74
2022/12/16 01:24:35;;;;;;;0.40;0.00;;;;;;;6.70;100.00;99238.38;5028148;28;20029;-74
2022/12/16 01:27:00;;;;;;;0.30;0.00;;;;;;;6.68;100.00;99246.28;5028172;28;20037;-74
2022/12/16 01:29:26;;;;;;;0.30;0.10;;;;;;;6.66;100.00;99246.44;5023788;28;20033;-74
2022/12/16 01:31:51;;;;;;;0.30;0.10;;;;;;;6.64;100.00;99260.47;5023629;28;20469;-73
2022/12/16 01:34:17;;;;;;;0.40;0.10;;;;;;;6.64;100.00;99260.47;5023855;28;20492;-73
2022/12/16 01:36:42;;;;;;;0.80;0.10;;;;;;;6.63;100.00;99251.91;5029258;28;20108;-73
2022/12/16 01:39:09;;;;;;;1.48;0.10;;;;;;;6.64;100.00;99242.34;5029836;28;20131;-73
2022/12/16 01:41:36;;;;;;;0.50;0.10;;;;;;;6.66;100.00;99249.00;5027398;28;20044;-73
2022/12/16 01:44:23;;;;;;;0.40;0.10;;;;;;;6.72;100.00;99246.78;5023164;28;20425;-73
2022/12/16 01:46:52;;;;;;;0.63;0.05;;;;;;;6.72;100.00;99250.19;5020658;28;20092;-73
2022/12/16 01:49:29;;;;;;;0.82;0.05;;;;;;;6.67;100.00;99242.06;5026163;28;20041;-73
2022/12/16 01:52:00;;;;;;;0.30;0.08;;;;;;;6.66;100.00;99237.84;5026822;28;20503;-73
2022/12/16 01:54:43;;;;;;;0.10;0.00;;;;;;;6.65;100.00;99237.03;5022412;28;20037;-73
2022/12/16 01:57:14;;;;;;;0.40;0.10;;;;;;;6.67;100.00;99231.72;5026778;28;20037;-73
2022/12/16 01:59:45;;;;;;;1.88;0.10;;;;;;;6.66;100.00;99235.25;5029987;28;20038;-72
2022/12/16 02:02:12;;;;;;;0.40;0.10;;;;;;;6.73;100.00;99233.69;5028352;28;20036;-73
2022/12/16 02:05:19;;;;;;;3.28;0.10;;;;;;;6.70;100.00;99220.25;5028403;28;20095;-72
2022/12/16 02:07:24;;;;;;;0.82;0.10;;;;;;;6.72;100.00;99226.09;5026002;28;20401;-73
2022/12/16 02:09:49;;;;;;;0.40;0.10;;;;;;;6.73;100.00;99227.72;5017287;28;20039;-73
2022/12/16 02:12:28;;;;;;;0.25;0.10;;;;;;;6.68;100.00;99228.16;5026582;28;20033;-72
2022/12/16 02:15:18;;;;;;;1.20;0.10;;;;;;;6.68;100.00;99228.16;5024054;28;20033;-73
2022/12/16 02:18:15;;;;;;;0.20;0.00;;;;;;;6.69;100.00;99234.16;5019830;28;20021;-73
2022/12/16 02:20:50;;;;;;;0.43;0.10;;;;;;;6.63;100.00;99248.50;5027415;28;20030;-72
2022/12/16 02:23:36;;;;;;;0.35;0.10;;;;;;;6.59;100.00;99247.19;5029020;28;20025;-73
2022/12/16 02:26:24;;;;;;;1.33;0.05;;;;;;;6.53;100.00;99240.03;5027235;28;20064;-73
2022/12/16 02:29:21;;;;;;;1.20;0.10;;;;;;;6.57;100.00;99246.53;5023429;28;20603;-73
2022/12/16 02:32:09;;;;;;;0.32;0.10;;;;;;;6.57;100.00;99246.53;5023162;28;20057;-73
2022/12/16 02:34:54;;;;;;;0.30;0.13;;;;;;;6.61;100.00;99242.69;5027029;28;23915;-72
2022/12/16 02:37:48;;;;;;;0.68;0.10;;;;;;;6.61;100.00;99240.09;5020710;28;20042;-73
2022/12/16 02:40:43;;;;;;;1.90;0.10;;;;;;;6.61;100.00;99242.69;5022919;28;20033;-73
2022/12/16 02:43:21;;;;;;;5.68;0.47;;;;;;;6.57;100.00;99236.19;5023922;28;20037;-73
2022/12/16 02:45:48;;;;;;;0.50;0.20;;;;;;;6.63;100.00;99238.16;5030161;28;20033;-73
2022/12/16 02:48:13;;;;;;;0.65;0.10;;;;;;;6.66;100.00;99238.66;5024379;28;20148;-72
2022/12/16 02:50:43;;;;;;;1.30;0.10;;;;;;;6.66;100.00;99243.03;5032657;28;20112;-72
2022/12/16 02:53:09;;;;;;;0.40;0.10;;;;;;;6.66;100.00;99240.44;5032272;28;20492;-73
2022/12/16 02:55:58;;;;;;;0.60;0.10;;;;;;;6.66;100.00;99243.84;5028092;28;20042;-73
2022/12/16 02:58:24;;;;;;;2.28;0.17;;;;;;;6.71;100.00;99251.16;5029985;28;21396;-72
2022/12/16 03:01:12;;;;;;;0.47;0.10;;;;;;;6.65;100.00;99254.34;5026203;28;20775;-73
2022/12/16 03:03:53;;;;;;;0.22;0.10;;;;;;;6.61;100.00;99263.38;5030750;28;20044;-73
2022/12/16 03:06:21;;;;;;;2.05;0.10;;;;;;;6.58;100.00;99261.91;5032070;28;20033;-72
2022/12/16 03:08:52;;;;;;;0.57;0.20;;;;;;;6.58;100.00;99254.16;5026077;28;20033;-72
2022/12/16 03:11:18;;;;;;;1.95;0.40;;;;;;;6.59;100.00;99260.13;5028983;28;20021;-72
2022/12/16 03:13:55;;;;;;;1.88;0.20;;;;;;;6.54;100.00;99245.06;5022755;28;20049;-72
2022/12/16 03:16:25;;;;;;;4.70;0.20;;;;;;;6.57;100.00;99251.72;5032203;28;20033;-72
2022/12/16 03:18:55;;;;;;;3.58;0.47;;;;;;;6.54;100.00;99259.75;5027633;28;20033;-72
2022/12/16 03:21:24;;;;;;;1.20;0.40;;;;;;;6.54;100.00;99246.81;5031498;28;20081;-72
2022/12/16 03:24:07;;;;;;;1.15;0.30;;;;;;;6.52;100.00;99251.34;5030290;28;20118;-72
2022/12/16 03:26:48;;;;;;;1.83;0.35;;;;;;;6.55;100.00;99248.44;5029979;28;20092;-73
2022/12/16 03:29:15;;;;;;;2.83;0.20;;;;;;;6.56;100.00;99244.91;5023436;28;20105;-72
2022/12/16 03:31:56;;;;;;;1.80;0.30;;;;;;;6.56;100.00;99247.50;5029809;28;20030;-72
2022/12/16 03:34:34;;;;;;;1.48;0.30;;;;;;;6.60;100.00;99244.47;5027914;28;20481;-72
2022/12/16 03:37:06;;;;;;;1.55;0.20;;;;;;;6.62;100.00;99239.09;5032428;28;20033;-74
2022/12/16 03:39:35;;;;;;;3.55;0.30;;;;;;;6.65;100.00;99241.41;5025928;28;20033;-72
2022/12/16 03:42:02;;;;;;;1.48;0.30;;;;;;;6.65;100.00;99238.81;5030874;28;20025;-73
2022/12/16 03:44:28;;;;;;;1.70;0.43;;;;;;;6.67;100.00;99234.31;5022651;28;20033;-72
2022/12/16 03:46:54;;;;;;;1.17;0.30;;;;;;;6.66;100.00;99232.66;5032492;28;20036;-71
2022/12/16 03:49:21;;;;;;;4.65;0.40;;;;;;;6.62;100.00;99236.53;5029136;28;20029;-72
2022/12/16 03:51:47;;;;;;;6.63;1.55;;;;;;;6.62;100.00;99239.09;5025663;28;20041;-73
2022/12/16 03:54:12;;;;;;;2.72;0.70;;;;;;;6.61;100.00;99234.91;5026603;28;20548;-73
2022/12/16 03:56:38;;;;;;;1.92;0.38;;;;;;;6.58;100.00;99238.63;5030304;28;20416;-72
2022/12/16 03:59:03;;;;;;;2.22;0.30;;;;;;;6.57;100.00;99233.59;5025425;28;20034;-73
2022/12/16 04:01:29;;;;;;;4.03;0.40;;;;;;;6.54;100.00;99228.72;5023453;28;20247;-73
2022/12/16 04:03:54;;;;;;;2.60;0.43;;;;;;;6.55;100.00;99225.16;5027440;28;20024;-72
2022/12/16 04:06:19;;;;;;;5.30;0.60;;;;;;;6.60;100.00;99228.13;5031322;28;20533;-72
2022/12/16 04:08:46;;;;;;;1.38;0.40;;;;;;;6.61;100.00;99220.22;5031475;28;20056;-73
2022/12/16 04:25:11;;;;;;;3.40;0.70;;;;;;;6.72;100.00;99231.25;5029824;28;20065;-72
2022/12/16 04:27:37;;;;;;;2.80;0.70;;;;;;;6.72;100.00;99224.31;5029259;28;20045;-73
2022/12/16 04:30:19;;;;;;;3.88;0.80;;;;;;;6.74;100.00;99226.75;5030564;28;20056;-73
